カンザスシティ の空港の天気 - METARとTAF

カンザスシティ国際空港 ( KMCI / MCI ) - アメリカ ミズーリ州カンザスシティ
飛行場実況気象(Metar)
観測時間01/29 01:53 CST (01/29 07:53 UTC)
風向・風速南 5m/s
視程10km以上
天気現象
なし
気温-6.1℃
湿度54%
気圧1024.2hPa
METARKMCI 290753Z 19010KT 10SM CLR M06/M14 A3021 RMK AO2 SLP242 T10611139
過去の天気等 Google飛行場航空写真 Wunderground天気予報

過去48時間のMETAR

飛行場予報(TAF)
発表時間: 1/28 23:20 CST (1/29 05:20 UTC)
予報対象時間: 29日0時 CST ~ 30日0時 CST
風向・風速南 5m/s
視程10km以上
全天の4割程度の雲 雲底高度 7620m
29日11時 CST から
風向・風速西南西 5m/s
視程10km以上
なし
29日17時 CST から
風向・風速西北西 4m/s
視程10km以上
なし
KMCI 290520Z 2906/3006 19009KT P6SM SCT250
FM291700 24010KT P6SM SKC
FM292300 29007KT P6SM SKC